createdAt,value
2018-08-09T00:00:50.767Z,7.73
2018-08-09T00:03:18.814Z,7.87
2018-08-09T00:05:46.860Z,7.70
2018-08-09T00:08:14.915Z,8.07
2018-08-09T00:10:42.989Z,7.70
2018-08-09T00:13:11.069Z,8.23
2018-08-09T00:15:39.130Z,12.93
2018-08-09T00:18:07.206Z,7.80
2018-08-09T00:20:35.263Z,7.17
2018-08-09T00:23:03.331Z,9.83
2018-08-09T00:25:31.403Z,7.00
2018-08-09T00:27:59.474Z,8.87
2018-08-09T00:30:27.536Z,8.60
2018-08-09T00:32:55.617Z,9.17
2018-08-09T00:35:23.653Z,8.60
2018-08-09T00:37:51.738Z,7.70
2018-08-09T00:40:19.794Z,8.70
2018-08-09T00:42:47.876Z,7.27
2018-08-09T00:45:15.919Z,9.00
2018-08-09T00:47:43.983Z,8.03
2018-08-09T00:50:12.051Z,7.30
2018-08-09T00:52:40.103Z,7.77
2018-08-09T00:55:08.171Z,7.83
2018-08-09T00:57:36.232Z,8.67
2018-08-09T01:00:05.130Z,8.73
2018-08-09T01:02:33.319Z,8.17
2018-08-09T01:05:01.394Z,8.20
2018-08-09T01:07:29.454Z,8.33
2018-08-09T01:09:57.532Z,8.27
2018-08-09T01:12:25.604Z,9.07
2018-08-09T01:14:53.708Z,8.03
2018-08-09T01:17:21.776Z,9.20
2018-08-09T01:19:49.834Z,8.27
2018-08-09T01:22:17.914Z,8.73
2018-08-09T01:24:46.075Z,7.77
2018-08-09T01:27:14.120Z,8.00
2018-08-09T01:29:42.192Z,10.20
2018-08-09T01:32:10.254Z,7.13
2018-08-09T01:34:38.315Z,8.50
2018-08-09T01:37:06.378Z,9.60
2018-08-09T01:39:34.457Z,8.87
2018-08-09T01:42:13.832Z,8.53
2018-08-09T01:44:41.905Z,8.23
2018-08-09T01:47:09.990Z,7.70
2018-08-09T01:49:38.096Z,8.03
2018-08-09T01:52:06.556Z,8.73
2018-08-09T01:54:34.622Z,9.17
2018-08-09T01:57:02.688Z,7.63
2018-08-09T01:59:30.759Z,15.93
2018-08-09T02:01:58.839Z,7.13
2018-08-09T02:04:26.937Z,7.73
2018-08-09T02:06:54.990Z,8.17
2018-08-09T02:09:28.386Z,8.07
2018-08-09T02:11:56.454Z,8.10
2018-08-09T02:14:24.551Z,7.93
2018-08-09T02:16:52.639Z,7.97
2018-08-09T02:19:20.929Z,8.40
2018-08-09T02:21:48.986Z,7.60
2018-08-09T02:24:17.159Z,8.63
2018-08-09T02:26:45.258Z,8.40
2018-08-09T02:29:13.316Z,8.13
2018-08-09T02:31:41.375Z,7.50
2018-08-09T02:34:09.648Z,8.97
2018-08-09T02:36:37.696Z,8.57
2018-08-09T02:39:07.557Z,8.20
2018-08-09T02:41:35.780Z,7.97
2018-08-09T02:44:03.934Z,9.17
2018-08-09T02:46:32.006Z,8.10
2018-08-09T02:49:00.072Z,8.23
2018-08-09T02:51:28.287Z,8.70
2018-08-09T02:53:56.352Z,11.40
2018-08-09T02:56:24.544Z,7.23
2018-08-09T02:58:52.680Z,8.50
2018-08-09T03:01:20.740Z,8.20
2018-08-09T03:03:48.817Z,10.23
2018-08-09T03:06:16.871Z,8.13
2018-08-09T03:08:44.930Z,9.07
2018-08-09T03:11:13.054Z,9.47
2018-08-09T03:13:41.220Z,7.57
2018-08-09T03:16:09.322Z,7.63
2018-08-09T03:18:37.350Z,8.50
2018-08-09T03:21:05.402Z,9.70
2018-08-09T03:23:33.548Z,8.40
2018-08-09T03:26:01.639Z,8.17
2018-08-09T03:28:29.687Z,7.67
2018-08-09T03:30:57.980Z,8.03
2018-08-09T03:33:26.028Z,8.70
2018-08-09T03:35:54.131Z,8.30
2018-08-09T03:38:22.199Z,7.50
2018-08-09T03:40:50.322Z,7.47
2018-08-09T03:43:18.360Z,8.03
2018-08-09T03:45:46.414Z,9.37
2018-08-09T03:48:14.492Z,8.90
2018-08-09T03:50:42.560Z,8.90
2018-08-09T03:53:10.634Z,8.70
2018-08-09T03:55:38.683Z,8.73
2018-08-09T03:58:07.827Z,7.67
2018-08-09T04:00:35.854Z,8.23
2018-08-09T04:03:03.922Z,8.10
2018-08-09T04:05:31.993Z,8.30
2018-08-09T04:08:00.045Z,7.20
2018-08-09T04:10:28.255Z,8.17
2018-08-09T04:12:56.470Z,8.00
2018-08-09T04:15:24.535Z,8.20
2018-08-09T04:17:52.628Z,7.80
2018-08-09T04:20:20.643Z,8.00
2018-08-09T04:22:48.714Z,8.53
2018-08-09T04:25:16.829Z,8.53
2018-08-09T04:27:44.888Z,8.10
2018-08-09T04:30:13.045Z,9.13
2018-08-09T04:32:41.101Z,8.40
2018-08-09T04:35:09.150Z,9.93
2018-08-09T04:37:37.241Z,9.00
2018-08-09T04:40:05.343Z,9.53
2018-08-09T04:42:33.394Z,8.53
2018-08-09T04:45:01.489Z,7.83
2018-08-09T04:47:29.542Z,8.63
2018-08-09T04:49:57.612Z,11.17
2018-08-09T04:52:25.665Z,14.47
2018-08-09T04:54:53.728Z,15.30
2018-08-09T04:57:21.775Z,11.90
2018-08-09T04:59:49.868Z,9.73
2018-08-09T05:02:17.946Z,8.90
2018-08-09T05:04:46.001Z,11.20
2018-08-09T05:07:14.072Z,13.93
2018-08-09T05:09:42.195Z,12.03
2018-08-09T05:12:10.231Z,9.57
2018-08-09T05:14:38.281Z,8.83
2018-08-09T05:17:06.354Z,8.70
2018-08-09T05:19:34.454Z,8.20
2018-08-09T05:22:02.525Z,8.10
2018-08-09T05:24:30.740Z,8.90
2018-08-09T05:26:58.963Z,9.23
2018-08-09T05:29:27.056Z,8.27
2018-08-09T05:31:55.190Z,10.50
2018-08-09T05:34:23.341Z,10.53
2018-08-09T05:36:51.408Z,9.93
2018-08-09T05:39:19.483Z,10.43
2018-08-09T05:41:47.715Z,9.30
2018-08-09T05:44:15.803Z,8.93
2018-08-09T05:46:43.894Z,8.93
2018-08-09T05:49:11.947Z,9.90
2018-08-09T05:51:40.024Z,10.10
2018-08-09T05:54:08.084Z,8.67
2018-08-09T05:56:36.162Z,9.67
2018-08-09T05:59:04.246Z,9.03
2018-08-09T06:01:32.352Z,9.50
2018-08-09T06:04:00.430Z,9.10
2018-08-09T06:06:28.507Z,9.57
2018-08-09T06:08:56.598Z,8.70
2018-08-09T06:11:24.700Z,9.07
2018-08-09T06:13:52.747Z,8.23
2018-08-09T06:16:21.681Z,8.30
2018-08-09T06:18:49.746Z,8.57
2018-08-09T06:21:17.787Z,8.90
2018-08-09T06:23:45.853Z,8.17
2018-08-09T06:26:13.932Z,8.60
2018-08-09T06:28:42.022Z,7.93
2018-08-09T06:31:10.086Z,7.53
2018-08-09T06:33:38.153Z,8.83
2018-08-09T06:36:06.249Z,9.33
2018-08-09T06:38:34.375Z,9.50
2018-08-09T06:41:02.439Z,8.73
2018-08-09T06:43:30.515Z,8.27
2018-08-09T06:45:58.685Z,8.03
2018-08-09T06:48:26.799Z,8.60
2018-08-09T06:50:54.947Z,9.30
2018-08-09T06:53:22.998Z,8.43
2018-08-09T06:55:51.072Z,8.10
2018-08-09T06:58:19.189Z,7.87
2018-08-09T07:00:47.251Z,8.73
2018-08-09T07:03:15.322Z,8.77
2018-08-09T07:05:43.374Z,9.20
2018-08-09T07:08:11.611Z,14.93
2018-08-09T07:10:39.814Z,17.17
2018-08-09T07:13:07.876Z,11.57
2018-08-09T07:15:35.969Z,7.80
2018-08-09T07:18:04.033Z,9.00
2018-08-09T07:20:32.095Z,9.50
2018-08-09T07:23:00.157Z,9.10
2018-08-09T07:25:28.232Z,9.13
2018-08-09T07:27:56.342Z,8.23
2018-08-09T07:30:24.407Z,8.67
2018-08-09T07:32:52.466Z,8.30
2018-08-09T07:35:20.536Z,8.37
2018-08-09T07:37:48.594Z,9.90
2018-08-09T07:40:16.750Z,7.43
2018-08-09T07:42:44.849Z,6.20
2018-08-09T07:45:13.896Z,6.30
2018-08-09T07:47:41.990Z,7.03
2018-08-09T07:50:10.643Z,6.40
2018-08-09T07:52:38.946Z,6.23
2018-08-09T07:55:08.543Z,6.67
2018-08-09T07:57:36.600Z,6.27
2018-08-09T08:00:06.327Z,6.70
2018-08-09T08:02:34.421Z,5.90
2018-08-09T08:05:02.602Z,6.30
2018-08-09T08:07:30.668Z,6.17
2018-08-09T08:09:58.739Z,7.20
2018-08-09T08:12:26.810Z,6.80
2018-08-09T08:14:54.869Z,9.40
2018-08-09T08:17:22.954Z,7.70
2018-08-09T08:19:51.125Z,7.10
2018-08-09T08:22:19.214Z,6.57
2018-08-09T08:24:47.594Z,6.13
2018-08-09T08:27:15.646Z,7.63
2018-08-09T08:29:43.810Z,5.73
2018-08-09T08:32:11.948Z,6.93
2018-08-09T08:34:40.189Z,5.67
2018-08-09T08:37:08.194Z,6.23
2018-08-09T08:39:36.727Z,6.47
2018-08-09T08:42:04.837Z,5.97
2018-08-09T08:44:32.899Z,7.10
2018-08-09T08:47:00.979Z,6.20
2018-08-09T08:49:29.040Z,5.50
2018-08-09T08:51:57.098Z,7.70
2018-08-09T08:54:25.810Z,6.73
2018-08-09T08:56:53.880Z,5.93
2018-08-09T08:59:21.975Z,7.73
2018-08-09T09:01:50.060Z,6.10
2018-08-09T09:04:18.176Z,5.60
2018-08-09T09:06:46.210Z,5.80
2018-08-09T09:09:14.690Z,6.00
2018-08-09T09:11:43.020Z,6.63
2018-08-09T09:14:11.524Z,8.50
2018-08-09T09:16:39.599Z,6.20
2018-08-09T09:19:08.158Z,6.03
2018-08-09T09:21:36.260Z,6.27
2018-08-09T09:24:04.338Z,6.47
2018-08-09T09:26:32.480Z,6.50
2018-08-09T09:29:00.536Z,6.40
2018-08-09T09:31:28.586Z,5.67
2018-08-09T09:33:56.673Z,5.83
2018-08-09T09:36:25.448Z,5.50
2018-08-09T10:39:38.698Z,14.67
2018-08-09T10:42:07.063Z,5.90
2018-08-09T10:44:35.261Z,7.60
2018-08-09T10:47:03.516Z,10.87
2018-08-09T10:49:31.745Z,7.70
2018-08-09T10:51:59.903Z,6.93
2018-08-09T10:54:28.072Z,4.40
2018-08-09T10:56:56.245Z,6.70
2018-08-09T10:59:24.542Z,5.70
2018-08-09T11:01:52.756Z,7.27
2018-08-09T11:04:21.503Z,5.70
2018-08-09T11:06:49.685Z,5.20
2018-08-09T11:09:17.887Z,7.30
2018-08-09T11:11:49.089Z,10.67
2018-08-09T11:14:17.433Z,6.53
2018-08-09T11:16:45.725Z,9.37
2018-08-09T11:19:17.286Z,6.10
2018-08-09T11:21:46.215Z,7.03
2018-08-09T11:24:14.407Z,7.13
2018-08-09T11:26:42.600Z,5.20
2018-08-09T11:32:05.064Z,7.27
2018-08-09T11:34:33.345Z,11.03
2018-08-09T11:37:02.238Z,6.40
2018-08-09T11:39:31.035Z,5.30
2018-08-09T11:41:59.503Z,10.47
2018-08-09T11:44:27.760Z,4.63
2018-08-09T11:46:55.975Z,4.83
2018-08-09T11:49:24.223Z,4.80
2018-08-09T11:51:52.606Z,5.73
2018-08-09T11:54:21.255Z,6.93
2018-08-09T11:56:49.497Z,9.13
2018-08-09T11:59:17.773Z,4.90
2018-08-09T12:01:47.059Z,4.10
2018-08-09T12:04:21.617Z,7.50
2018-08-09T12:06:50.116Z,4.10
2018-08-09T12:09:23.173Z,7.63
2018-08-09T12:11:51.363Z,4.70
2018-08-09T12:14:23.375Z,6.70
2018-08-09T12:16:52.263Z,7.80
2018-08-09T12:19:20.476Z,5.63
2018-08-09T12:21:59.387Z,4.53
2018-08-09T12:24:32.969Z,7.50
2018-08-09T12:27:10.516Z,5.60
2018-08-09T12:29:38.699Z,4.10
2018-08-09T12:32:07.688Z,5.80
2018-08-09T12:34:37.618Z,7.30
2018-08-09T12:37:10.429Z,4.40
2018-08-09T12:39:38.636Z,5.00
2018-08-09T12:42:06.819Z,5.57
2018-08-09T12:44:34.996Z,4.17
2018-08-09T12:47:04.854Z,6.10
2018-08-09T12:49:33.053Z,4.63
2018-08-09T12:52:01.241Z,4.70
2018-08-09T12:54:29.413Z,4.40
2018-08-09T12:56:57.840Z,8.97
2018-08-09T12:59:26.056Z,3.03
2018-08-09T13:01:54.279Z,6.90
2018-08-09T13:04:22.478Z,6.50
2018-08-09T13:06:51.344Z,6.37
2018-08-09T13:09:19.532Z,3.90
2018-08-09T13:11:47.689Z,7.50
2018-08-09T13:14:16.121Z,5.93
2018-08-09T13:16:44.344Z,6.20
2018-08-09T13:19:12.629Z,3.27
2018-08-09T13:21:40.818Z,3.17
2018-08-09T13:24:09.031Z,8.20
2018-08-09T13:26:37.169Z,4.20
2018-08-09T13:29:05.472Z,11.60
2018-08-09T13:31:33.546Z,3.00
2018-08-09T13:34:01.796Z,5.00
2018-08-09T13:36:29.875Z,3.13
2018-08-09T13:38:58.012Z,3.13
2018-08-09T13:41:26.135Z,5.17
2018-08-09T13:43:54.318Z,3.60
2018-08-09T13:46:22.530Z,2.80
2018-08-09T13:48:50.640Z,4.10
2018-08-09T13:51:18.743Z,2.97
2018-08-09T13:53:47.030Z,3.00
2018-08-09T13:56:15.365Z,3.77
2018-08-09T13:58:43.516Z,3.53
2018-08-09T14:01:11.676Z,5.90
2018-08-09T14:03:39.740Z,3.50
2018-08-09T14:06:07.951Z,4.47
2018-08-09T14:08:36.171Z,3.37
2018-08-09T14:11:04.454Z,4.73
2018-08-09T14:13:32.684Z,6.90
2018-08-09T14:16:00.759Z,4.23
2018-08-09T14:18:29.044Z,5.00
2018-08-09T14:20:57.280Z,3.20
2018-08-09T14:23:25.343Z,5.00
2018-08-09T14:25:53.522Z,4.60
2018-08-09T14:28:21.715Z,6.07
2018-08-09T14:30:50.017Z,3.03
2018-08-09T14:33:18.319Z,4.77
2018-08-09T14:35:46.475Z,5.10
2018-08-09T14:38:14.567Z,3.13
2018-08-09T14:40:42.680Z,2.67
2018-08-09T14:43:10.890Z,3.20
2018-08-09T14:45:38.995Z,4.17
2018-08-09T14:48:07.108Z,4.57
2018-08-09T14:50:35.194Z,6.03
2018-08-09T14:53:05.299Z,7.20
2018-08-09T14:55:36.257Z,2.93
2018-08-09T14:58:09.283Z,3.63
2018-08-09T15:00:40.810Z,4.30
2018-08-09T15:03:11.864Z,3.27
2018-08-09T15:05:41.606Z,4.40
2018-08-09T15:08:18.139Z,3.67
2018-08-09T15:10:46.739Z,5.17
2018-08-09T15:13:17.210Z,3.40
2018-08-09T15:15:54.869Z,3.07
2018-08-09T15:18:24.560Z,3.57
2018-08-09T15:20:54.430Z,2.43
2018-08-09T15:23:29.039Z,3.70
2018-08-09T15:25:59.101Z,4.40
2018-08-09T15:28:29.033Z,1.67
2018-08-09T15:30:59.210Z,2.53
2018-08-09T15:33:28.273Z,2.70
2018-08-09T15:35:59.392Z,1.50
2018-08-09T15:38:29.924Z,1.30
2018-08-09T15:41:01.066Z,1.83
2018-08-09T15:43:29.970Z,1.30
2018-08-09T15:48:58.304Z,2.27
2018-08-09T15:51:35.013Z,2.30
2018-08-09T15:54:08.065Z,1.43
2018-08-09T15:56:36.506Z,2.17
2018-08-09T15:59:24.978Z,1.57
2018-08-09T16:01:57.535Z,2.37
2018-08-09T16:04:26.207Z,1.90
2018-08-09T16:06:55.433Z,2.10
2018-08-09T16:09:23.544Z,3.83
2018-08-09T16:11:51.644Z,1.37
2018-08-09T16:14:19.732Z,3.23
2018-08-09T16:16:47.837Z,3.03
2018-08-09T16:19:15.999Z,1.50
2018-08-09T16:21:44.090Z,3.20
2018-08-09T16:24:12.207Z,2.33
2018-08-09T16:26:40.953Z,2.17
2018-08-09T16:29:09.179Z,1.90
2018-08-09T16:31:37.435Z,3.30
2018-08-09T16:34:05.627Z,1.40
2018-08-09T16:36:33.816Z,4.03
2018-08-09T16:39:01.883Z,1.80
2018-08-09T16:41:29.958Z,2.80
2018-08-09T16:43:58.070Z,3.20
2018-08-09T16:46:26.268Z,2.80
2018-08-09T16:48:54.390Z,3.37
2018-08-09T16:51:22.472Z,2.23
2018-08-09T16:53:50.592Z,1.90
2018-08-09T16:56:18.698Z,2.07
2018-08-09T16:58:46.833Z,2.10
2018-08-09T17:01:14.911Z,1.80
2018-08-09T17:03:42.979Z,3.33
2018-08-09T17:06:11.063Z,2.93
2018-08-09T17:08:39.139Z,2.17
2018-08-09T17:11:08.116Z,2.40
2018-08-09T17:13:36.199Z,3.10
2018-08-09T17:16:04.320Z,2.03
2018-08-09T17:18:32.406Z,1.63
2018-08-09T17:21:00.502Z,2.37
2018-08-09T17:23:31.182Z,2.47
2018-08-09T17:25:59.416Z,3.60
2018-08-09T17:28:27.553Z,2.87
2018-08-09T17:30:55.694Z,3.77
2018-08-09T17:33:24.012Z,2.50
2018-08-09T17:35:52.136Z,2.30
2018-08-09T17:38:20.248Z,4.70
2018-08-09T17:40:49.108Z,5.50
2018-08-09T17:43:20.531Z,3.90
2018-08-09T17:45:48.613Z,1.87
2018-08-09T17:48:16.691Z,3.00
2018-08-09T17:50:44.883Z,1.97
2018-08-09T17:53:13.115Z,2.10
2018-08-09T17:55:41.188Z,1.23
2018-08-09T17:58:09.468Z,2.40
2018-08-09T18:00:37.535Z,2.43
2018-08-09T18:03:06.053Z,2.10
2018-08-09T18:05:34.131Z,1.73
2018-08-09T18:08:02.324Z,1.80
2018-08-09T18:10:32.233Z,2.40
2018-08-09T18:13:00.609Z,1.30
2018-08-09T18:15:29.554Z,2.17
2018-08-09T18:17:58.260Z,3.10
2018-08-09T18:20:28.554Z,3.03
2018-08-09T18:22:56.945Z,3.13
2018-08-09T18:25:25.299Z,1.43
2018-08-09T18:27:53.511Z,2.13
2018-08-09T18:30:24.318Z,1.73
2018-08-09T18:32:57.773Z,1.40
2018-08-09T18:35:27.309Z,1.93
2018-08-09T18:37:59.050Z,1.93
2018-08-09T18:40:31.121Z,1.20
2018-08-09T18:43:07.803Z,3.07
2018-08-09T18:45:36.285Z,1.67
2018-08-09T18:48:04.667Z,1.30
2018-08-09T18:50:35.289Z,1.60
2018-08-09T18:53:03.745Z,1.90
2018-08-09T18:55:31.989Z,1.93
2018-08-09T18:58:00.602Z,2.50
2018-08-09T19:00:30.073Z,1.50
2018-08-09T19:03:03.150Z,1.27
2018-08-09T19:05:32.295Z,2.10
2018-08-09T19:08:01.419Z,1.60
2018-08-09T19:10:31.844Z,1.80
2018-08-09T19:13:11.300Z,2.10
2018-08-09T19:15:43.836Z,1.70
2018-08-09T19:18:13.354Z,1.50
2018-08-09T19:20:41.740Z,1.87
2018-08-09T19:23:09.944Z,1.87
2018-08-09T19:25:38.189Z,1.60
2018-08-09T19:28:10.550Z,1.80
2018-08-09T19:30:39.077Z,3.00
2018-08-09T19:33:08.246Z,1.63
2018-08-09T19:35:36.532Z,1.60
2018-08-09T19:38:07.406Z,1.87
2018-08-09T19:40:36.787Z,1.50
2018-08-09T19:43:05.295Z,2.33
2018-08-09T19:45:34.217Z,1.80
2018-08-09T19:48:03.436Z,3.00
2018-08-09T19:50:31.748Z,2.10
2018-08-09T19:53:01.047Z,1.43
2018-08-09T19:55:34.341Z,1.90
2018-08-09T19:58:06.757Z,1.83
2018-08-09T20:00:35.788Z,1.37
2018-08-09T20:03:07.696Z,2.10
2018-08-09T20:05:35.750Z,1.23
2018-08-09T20:08:03.913Z,1.67
2018-08-09T20:10:34.439Z,1.87
2018-08-09T20:13:02.714Z,1.40
2018-08-09T20:15:31.231Z,1.17
2018-08-09T20:18:03.044Z,2.13
2018-08-09T20:20:31.293Z,1.60
2018-08-09T20:22:59.632Z,1.43
2018-08-09T20:25:28.494Z,1.40
2018-08-09T20:27:57.334Z,1.93
2018-08-09T20:30:26.694Z,1.47
2018-08-09T20:32:54.967Z,1.30
2018-08-09T20:35:24.667Z,1.93
2018-08-09T20:37:53.089Z,1.33
2018-08-09T20:40:22.533Z,2.13
2018-08-09T20:42:52.548Z,1.30
2018-08-09T20:45:22.762Z,1.27
2018-08-09T20:47:51.033Z,1.27
2018-08-09T20:50:22.988Z,2.60
2018-08-09T21:14:58.394Z,0.87
2018-08-09T21:17:26.595Z,2.17
2018-08-09T21:19:55.073Z,1.30
2018-08-09T21:22:23.828Z,1.27
2018-08-09T21:24:52.963Z,1.20
2018-08-09T21:27:25.338Z,1.60
2018-08-09T21:29:55.268Z,1.37
2018-08-09T21:32:25.472Z,1.00
2018-08-09T21:34:54.122Z,1.00
2018-08-09T21:37:22.916Z,1.20
2018-08-09T21:39:51.188Z,1.93
2018-08-09T21:42:19.834Z,1.80
2018-08-09T21:44:48.792Z,2.57
2018-08-09T21:47:16.937Z,1.77
2018-08-09T21:49:45.370Z,1.40
2018-08-09T21:52:13.635Z,1.17
2018-08-09T21:54:42.083Z,1.10
2018-08-09T21:57:10.273Z,1.00
2018-08-09T21:59:39.467Z,1.00
2018-08-09T22:02:07.468Z,1.60
2018-08-09T22:04:39.851Z,1.27
2018-08-09T22:07:13.682Z,0.90
2018-08-09T22:09:51.074Z,0.90
2018-08-09T22:12:25.049Z,1.20
2018-08-09T22:14:58.575Z,1.30
2018-08-09T22:17:32.020Z,1.40
2018-08-09T22:20:05.463Z,1.30
2018-08-09T22:22:36.350Z,1.20
2018-08-09T22:25:06.100Z,1.73
2018-08-09T22:27:34.340Z,0.97
2018-08-09T22:30:02.436Z,0.93
2018-08-09T22:32:30.592Z,1.20
2018-08-09T22:34:58.687Z,1.00
2018-08-09T22:37:26.879Z,1.97
2018-08-09T22:39:54.956Z,1.30
2018-08-09T22:42:23.043Z,1.40
2018-08-09T22:44:51.244Z,1.10
2018-08-09T22:47:19.327Z,1.40
2018-08-09T22:49:47.384Z,1.60
2018-08-09T22:52:15.445Z,1.80
2018-08-09T22:54:43.505Z,1.00
2018-08-09T22:57:11.577Z,1.20
2018-08-09T22:59:39.667Z,1.00
2018-08-09T23:02:07.781Z,0.90
2018-08-09T23:04:35.847Z,2.23
2018-08-09T23:07:03.963Z,2.20
2018-08-09T23:09:32.046Z,1.10
2018-08-09T23:12:00.139Z,1.00
2018-08-09T23:14:28.207Z,1.40
2018-08-09T23:16:56.295Z,1.77
2018-08-09T23:19:24.369Z,1.17
2018-08-09T23:21:52.420Z,1.13
2018-08-09T23:24:20.509Z,2.30
2018-08-09T23:26:48.571Z,1.93
2018-08-09T23:29:16.640Z,1.00
2018-08-09T23:31:44.716Z,0.70
2018-08-09T23:34:12.800Z,1.67
2018-08-09T23:36:40.930Z,0.93
2018-08-09T23:39:11.175Z,0.90
2018-08-09T23:41:39.248Z,1.13
2018-08-09T23:44:07.463Z,1.00
2018-08-09T23:46:35.544Z,0.80
2018-08-09T23:49:03.624Z,3.70
2018-08-09T23:51:31.700Z,1.10
2018-08-09T23:53:59.787Z,2.00
2018-08-09T23:56:27.960Z,0.80
2018-08-09T23:58:56.034Z,0.80
